Time,TemperatureF,DewpointF,PressureIn,WindDirection,WindDirectionDegrees,WindSpeedMPH,WindSpeedGustMPH,Humidity,HourlyPrecipIn,Conditions,Clouds,dailyrainin,SoftwareType,DateUTC
2013-03-30 00:02:00,55.0,50.0,29.96,East,88,0.0,-999.0,84,-99.99,,,-99.99,,2013-03-30 07:02:00,
2013-03-30 00:11:00,55.0,50.0,29.96,East,88,0.0,-999.0,84,-99.99,,,-99.99,,2013-03-30 07:11:00,
2013-03-30 00:22:00,55.0,51.0,29.97,East,88,0.0,-999.0,85,-99.99,,,-99.99,,2013-03-30 07:22:00,
2013-03-30 00:32:00,55.0,51.0,29.96,East,88,0.0,-999.0,85,-99.99,,,-99.99,,2013-03-30 07:32:00,
2013-03-30 00:42:00,55.0,51.0,29.96,East,88,0.0,-999.0,85,-99.99,,,-99.99,,2013-03-30 07:42:00,
2013-03-30 00:52:00,54.0,50.0,29.96,East,88,0.0,-999.0,85,-99.99,,,-99.99,,2013-03-30 07:52:00,
2013-03-30 01:01:00,54.0,51.0,29.96,SE,132,0.0,-999.0,88,-99.99,,,-99.99,,2013-03-30 08:01:00,
2013-03-30 01:11:00,54.0,51.0,29.96,SE,132,0.0,-999.0,88,-99.99,,,-99.99,,2013-03-30 08:11:00,
2013-03-30 01:21:00,54.0,51.0,29.96,SE,132,0.0,-999.0,89,-99.99,,,-99.99,,2013-03-30 08:21:00,
2013-03-30 01:32:00,54.0,51.0,29.96,SE,132,0.0,-999.0,90,-99.99,,,-99.99,,2013-03-30 08:32:00,
2013-03-30 01:42:00,54.0,51.0,29.96,SE,132,0.0,-999.0,90,-99.99,,,-99.99,,2013-03-30 08:42:00,
2013-03-30 01:52:00,54.0,51.0,29.96,SE,128,0.0,-999.0,90,-99.99,,,-99.99,,2013-03-30 08:52:00,
2013-03-30 02:01:00,54.0,51.0,29.96,East,101,0.0,-999.0,91,-99.99,,,-99.99,,2013-03-30 09:01:00,
2013-03-30 02:11:00,54.0,51.0,29.97,East,101,0.0,-999.0,91,-99.99,,,-99.99,,2013-03-30 09:11:00,
2013-03-30 02:22:00,54.0,51.0,29.97,East,101,0.0,-999.0,91,-99.99,,,-99.99,,2013-03-30 09:22:00,
2013-03-30 02:33:00,53.0,50.0,29.96,East,101,0.0,-999.0,91,-99.99,,,-99.99,,2013-03-30 09:33:00,
2013-03-30 02:42:00,53.0,50.0,29.96,East,101,0.0,-999.0,91,-99.99,,,-99.99,,2013-03-30 09:42:00,
2013-03-30 02:52:00,54.0,51.0,29.97,ESE,102,0.0,-999.0,91,-99.99,,,-99.99,,2013-03-30 09:52:00,
2013-03-30 03:02:00,54.0,51.0,29.97,ESE,104,0.0,-999.0,91,-99.99,,,-99.99,,2013-03-30 10:02:00,
2013-03-30 03:12:00,54.0,51.0,29.97,ESE,104,0.0,-999.0,91,-99.99,,,-99.99,,2013-03-30 10:12:00,
2013-03-30 03:22:00,53.0,50.0,29.96,ESE,104,0.0,-999.0,91,-99.99,,,-99.99,,2013-03-30 10:22:00,
2013-03-30 03:32:00,53.0,50.0,29.96,East,90,0.0,-999.0,91,-99.99,,,-99.99,,2013-03-30 10:32:00,
2013-03-30 03:42:00,53.0,50.0,29.96,East,90,0.0,-999.0,91,-99.99,,,-99.99,,2013-03-30 10:42:00,
2013-03-30 03:52:00,53.0,50.0,29.96,East,88,0.0,-999.0,91,-99.99,,,-99.99,,2013-03-30 10:52:00,
2013-03-30 04:02:00,53.0,50.0,29.95,East,88,0.0,-999.0,91,-99.99,,,-99.99,,2013-03-30 11:02:00,
2013-03-30 04:12:00,53.0,50.0,29.95,East,88,0.0,-999.0,91,-99.99,,,-99.99,,2013-03-30 11:12:00,
2013-03-30 04:22:00,53.0,50.0,29.93,East,88,0.0,-999.0,90,-99.99,,,-99.99,,2013-03-30 11:22:00,
2013-03-30 04:32:00,53.0,50.0,29.93,East,88,0.0,-999.0,90,-99.99,,,-99.99,,2013-03-30 11:32:00,
2013-03-30 04:42:00,53.0,50.0,29.93,East,88,0.0,-999.0,90,-99.99,,,-99.99,,2013-03-30 11:42:00,
2013-03-30 04:52:00,53.0,50.0,29.93,East,85,0.0,-999.0,91,-99.99,,,-99.99,,2013-03-30 11:52:00,
2013-03-30 05:02:00,53.0,50.0,29.92,East,85,0.0,-999.0,90,-99.99,,,-99.99,,2013-03-30 12:02:00,
2013-03-30 05:12:00,53.0,50.0,29.92,East,85,0.0,-999.0,90,-99.99,,,-99.99,,2013-03-30 12:12:00,
2013-03-30 05:22:00,52.0,49.0,29.92,East,85,0.0,-999.0,90,-99.99,,,-99.99,,2013-03-30 12:22:00,
2013-03-30 05:32:00,52.0,49.0,29.93,East,85,0.0,-999.0,91,-99.99,,,-99.99,,2013-03-30 12:32:00,
2013-03-30 05:42:00,52.0,49.0,29.93,East,85,0.0,-999.0,91,-99.99,,,-99.99,,2013-03-30 12:42:00,
2013-03-30 05:52:00,52.0,49.0,29.93,East,85,0.0,-999.0,91,-99.99,,,-99.99,,2013-03-30 12:52:00,
2013-03-30 06:02:00,52.0,49.0,29.93,East,85,0.0,-999.0,91,-99.99,,,-99.99,,2013-03-30 13:02:00,
2013-03-30 06:11:00,52.0,49.0,29.93,East,85,0.0,-999.0,91,-99.99,,,-99.99,,2013-03-30 13:11:00,
2013-03-30 06:22:00,53.0,50.0,29.95,East,85,0.0,-999.0,91,-99.99,,,-99.99,,2013-03-30 13:22:00,
2013-03-30 06:32:00,53.0,50.0,29.95,East,85,0.0,-999.0,90,-99.99,,,-99.99,,2013-03-30 13:32:00,
2013-03-30 06:43:00,53.0,50.0,29.95,East,85,0.0,-999.0,90,-99.99,,,-99.99,,2013-03-30 13:43:00,
2013-03-30 06:52:00,53.0,50.0,29.96,East,85,0.0,-999.0,90,-99.99,,,-99.99,,2013-03-30 13:52:00,
2013-03-30 07:02:00,53.0,50.0,29.96,East,85,0.0,-999.0,89,-99.99,,,-99.99,,2013-03-30 14:02:00,
2013-03-30 07:11:00,53.0,50.0,29.96,East,85,0.0,-999.0,89,-99.99,,,-99.99,,2013-03-30 14:11:00,
2013-03-30 07:22:00,53.0,50.0,29.96,East,85,0.0,-999.0,89,-99.99,,,-99.99,,2013-03-30 14:22:00,
2013-03-30 07:32:00,53.0,50.0,29.96,East,85,0.0,-999.0,89,-99.99,,,-99.99,,2013-03-30 14:32:00,
2013-03-30 07:42:00,53.0,50.0,29.96,East,85,0.0,-999.0,89,-99.99,,,-99.99,,2013-03-30 14:42:00,
2013-03-30 07:52:00,53.0,50.0,29.97,East,85,0.0,-999.0,88,-99.99,,,-99.99,,2013-03-30 14:52:00,
2013-03-30 08:02:00,53.0,50.0,29.98,East,85,0.0,-999.0,88,-99.99,,,-99.99,,2013-03-30 15:02:00,
2013-03-30 08:12:00,53.0,50.0,29.98,East,85,0.0,-999.0,88,-99.99,,,-99.99,,2013-03-30 15:12:00,
2013-03-30 08:22:00,53.0,50.0,29.98,East,85,0.0,-999.0,88,-99.99,,,-99.99,,2013-03-30 15:22:00,
2013-03-30 08:33:00,53.0,50.0,29.98,East,85,0.0,-999.0,88,-99.99,,,-99.99,,2013-03-30 15:33:00,
2013-03-30 08:42:00,53.0,50.0,29.98,East,85,0.0,-999.0,88,-99.99,,,-99.99,,2013-03-30 15:42:00,
2013-03-30 08:52:00,54.0,50.0,29.98,East,85,0.0,-999.0,87,-99.99,,,-99.99,,2013-03-30 15:52:00,
2013-03-30 09:03:00,54.0,50.0,29.98,East,85,0.0,-999.0,86,-99.99,,,-99.99,,2013-03-30 16:03:00,
2013-03-30 09:12:00,55.0,51.0,29.97,East,85,0.0,-999.0,85,-99.99,,,-99.99,,2013-03-30 16:12:00,
2013-03-30 09:22:00,55.0,51.0,29.97,East,85,0.0,-999.0,85,-99.99,,,-99.99,,2013-03-30 16:22:00,
2013-03-30 09:32:00,55.0,51.0,29.97,East,81,0.0,-999.0,85,-99.99,,,-99.99,,2013-03-30 16:32:00,
2013-03-30 09:42:00,55.0,51.0,29.97,East,81,0.0,-999.0,85,-99.99,,,-99.99,,2013-03-30 16:42:00,
2013-03-30 09:52:00,55.0,51.0,29.97,East,81,0.0,-999.0,85,-99.99,,,-99.99,,2013-03-30 16:52:00,
2013-03-30 10:02:00,55.0,51.0,29.97,East,81,0.0,-999.0,85,-99.99,,,-99.99,,2013-03-30 17:02:00,
2013-03-30 10:12:00,55.0,51.0,29.97,East,81,0.0,-999.0,85,-99.99,,,-99.99,,2013-03-30 17:12:00,
2013-03-30 15:23:00,75.0,51.0,29.92,NE,51,2.0,-999.0,43,-99.99,,,-99.99,,2013-03-30 22:23:00,
2013-03-30 15:33:00,74.0,52.0,29.92,ENE,65,2.0,-999.0,46,-99.99,,,-99.99,,2013-03-30 22:33:00,
2013-03-30 15:43:00,74.0,52.0,29.92,ENE,65,2.0,-999.0,46,-99.99,,,-99.99,,2013-03-30 22:43:00,
2013-03-30 15:53:00,71.0,50.0,29.92,NE,53,1.0,-999.0,48,-99.99,,,-99.99,,2013-03-30 22:53:00,
2013-03-30 16:02:00,70.0,48.0,29.92,East,80,1.0,-999.0,45,-99.99,,,-99.99,,2013-03-30 23:02:00,
2013-03-30 16:12:00,70.0,48.0,29.92,East,80,1.0,-999.0,45,-99.99,,,-99.99,,2013-03-30 23:12:00,
2013-03-30 16:22:00,70.0,48.0,29.92,East,94,1.0,-999.0,46,-99.99,,,-99.99,,2013-03-30 23:22:00,
2013-03-30 16:32:00,70.0,49.0,29.91,NE,39,1.0,-999.0,47,-99.99,,,-99.99,,2013-03-30 23:32:00,
2013-03-30 16:42:00,70.0,49.0,29.91,NE,39,1.0,-999.0,47,-99.99,,,-99.99,,2013-03-30 23:42:00,
2013-03-30 16:52:00,70.0,48.0,29.91,East,90,1.0,-999.0,45,-99.99,,,-99.99,,2013-03-30 23:52:00,
2013-03-30 17:02:00,70.0,46.0,29.91,NE,49,1.0,-999.0,42,-99.99,,,-99.99,,2013-03-31 00:02:00,
2013-03-30 17:11:00,70.0,46.0,29.91,NE,49,1.0,-999.0,42,-99.99,,,-99.99,,2013-03-31 00:11:00,
2013-03-30 17:22:00,70.0,45.0,29.91,ESE,117,1.0,-999.0,40,-99.99,,,-99.99,,2013-03-31 00:22:00,
2013-03-30 17:32:00,71.0,44.0,29.91,ENE,65,0.0,-999.0,38,-99.99,,,-99.99,,2013-03-31 00:32:00,
2013-03-30 17:42:00,71.0,44.0,29.91,ENE,65,0.0,-999.0,38,-99.99,,,-99.99,,2013-03-31 00:42:00,
2013-03-30 17:52:00,71.0,44.0,29.91,ESE,111,0.0,-999.0,38,-99.99,,,-99.99,,2013-03-31 00:52:00,
2013-03-30 18:02:00,71.0,43.0,29.91,ESE,117,0.0,-999.0,37,-99.99,,,-99.99,,2013-03-31 01:02:00,
2013-03-30 18:11:00,71.0,43.0,29.91,ESE,117,0.0,-999.0,37,-99.99,,,-99.99,,2013-03-31 01:11:00,
2013-03-30 18:22:00,70.0,43.0,29.90,East,80,0.0,-999.0,38,-99.99,,,-99.99,,2013-03-31 01:22:00,
2013-03-30 18:32:00,70.0,45.0,29.90,ESE,108,0.0,-999.0,40,-99.99,,,-99.99,,2013-03-31 01:32:00,
2013-03-30 18:42:00,70.0,45.0,29.90,ESE,108,0.0,-999.0,40,-99.99,,,-99.99,,2013-03-31 01:42:00,
2013-03-30 18:52:00,68.0,41.0,29.91,ESE,103,1.0,-999.0,38,-99.99,,,-99.99,,2013-03-31 01:52:00,
2013-03-30 19:02:00,67.0,41.0,29.91,East,84,1.0,-999.0,39,-99.99,,,-99.99,,2013-03-31 02:02:00,
2013-03-30 19:11:00,67.0,41.0,29.91,East,84,1.0,-999.0,39,-99.99,,,-99.99,,2013-03-31 02:11:00,
2013-03-30 19:21:00,65.0,43.0,29.92,East,92,0.0,-999.0,45,-99.99,,,-99.99,,2013-03-31 02:21:00,
2013-03-30 19:32:00,64.0,45.0,29.92,ENE,67,0.0,-999.0,50,-99.99,,,-99.99,,2013-03-31 02:32:00,
2013-03-30 19:52:00,62.0,47.0,29.92,East,98,0.0,-999.0,57,-99.99,,,-99.99,,2013-03-31 02:52:00,
2013-03-30 20:02:00,62.0,47.0,29.92,East,98,0.0,-999.0,57,-99.99,,,-99.99,,2013-03-31 03:02:00,
2013-03-30 20:11:00,62.0,47.0,29.92,East,98,0.0,-999.0,57,-99.99,,,-99.99,,2013-03-31 03:11:00,
2013-03-30 20:21:00,60.0,47.0,29.93,ESE,103,0.0,-999.0,63,-99.99,,,-99.99,,2013-03-31 03:21:00,
2013-03-30 20:32:00,60.0,48.0,29.93,ESE,103,0.0,-999.0,65,-99.99,,,-99.99,,2013-03-31 03:32:00,
2013-03-30 20:43:00,60.0,48.0,29.93,ESE,103,0.0,-999.0,65,-99.99,,,-99.99,,2013-03-31 03:43:00,
2013-03-30 20:53:00,59.0,50.0,29.93,ESE,103,0.0,-999.0,71,-99.99,,,-99.99,,2013-03-31 03:53:00,
2013-03-30 21:02:00,58.0,-99.9,29.94,ESE,103,0.0,-999.0,66,-99.99,,,-99.99,,2013-03-31 04:02:00,
2013-03-30 21:12:00,58.0,47.0,29.94,ESE,103,0.0,-999.0,66,-99.99,,,-99.99,,2013-03-31 04:12:00,
2013-03-30 21:22:00,57.0,46.0,29.95,ESE,103,0.0,-999.0,67,-99.99,,,-99.99,,2013-03-31 04:22:00,
2013-03-30 21:32:00,56.0,46.0,29.95,ESE,103,0.0,-999.0,68,-99.99,,,-99.99,,2013-03-31 04:32:00,
2013-03-30 21:42:00,56.0,46.0,29.95,ESE,103,0.0,-999.0,68,-99.99,,,-99.99,,2013-03-31 04:42:00,
2013-03-30 21:52:00,56.0,49.0,29.96,ESE,103,0.0,-999.0,78,-99.99,,,-99.99,,2013-03-31 04:52:00,
2013-03-30 22:02:00,55.0,48.0,29.96,ESE,103,0.0,-999.0,76,-99.99,,,-99.99,,2013-03-31 05:02:00,
2013-03-30 22:12:00,55.0,48.0,29.96,ESE,103,0.0,-999.0,76,-99.99,,,-99.99,,2013-03-31 05:12:00,
2013-03-30 22:22:00,55.0,48.0,29.96,ESE,103,0.0,-999.0,76,-99.99,,,-99.99,,2013-03-31 05:22:00,
2013-03-30 22:32:00,54.0,47.0,29.97,ESE,103,0.0,-999.0,76,-99.99,,,-99.99,,2013-03-31 05:32:00,
2013-03-30 22:42:00,54.0,47.0,29.97,ESE,103,0.0,-999.0,76,-99.99,,,-99.99,,2013-03-31 05:42:00,
2013-03-30 22:53:00,54.0,47.0,29.97,ESE,103,0.0,-999.0,78,-99.99,,,-99.99,,2013-03-31 05:53:00,
2013-03-30 23:01:00,53.0,46.0,29.97,ESE,103,0.0,-999.0,77,-99.99,,,-99.99,,2013-03-31 06:01:00,
2013-03-30 23:11:00,53.0,46.0,29.97,ESE,103,0.0,-999.0,77,-99.99,,,-99.99,,2013-03-31 06:11:00,
2013-03-30 23:22:00,53.0,45.0,29.97,ESE,103,0.0,-999.0,75,-99.99,,,-99.99,,2013-03-31 06:22:00,
2013-03-30 23:32:00,53.0,45.0,29.96,ESE,103,0.0,-999.0,74,-99.99,,,-99.99,,2013-03-31 06:32:00,
2013-03-30 23:42:00,53.0,45.0,29.96,ESE,103,0.0,-999.0,74,-99.99,,,-99.99,,2013-03-31 06:42:00,
2013-03-30 23:52:00,53.0,45.0,29.97,ESE,103,0.0,-999.0,75,-99.99,,,-99.99,,2013-03-31 06:52:00,